sensor_id;sensor_type;location;lat;lon;timestamp;temperature;humidity
3051;DHT22;1535;51.098;6.414;2022-09-30T00:01:36;4.50;99.90
3051;DHT22;1535;51.098;6.414;2022-09-30T00:04:05;4.50;99.90
3051;DHT22;1535;51.098;6.414;2022-09-30T00:06:32;4.50;99.90
3051;DHT22;1535;51.098;6.414;2022-09-30T00:09:01;4.50;99.90
3051;DHT22;1535;51.098;6.414;2022-09-30T00:11:30;4.50;99.90
3051;DHT22;1535;51.098;6.414;2022-09-30T00:13:59;4.60;99.90
3051;DHT22;1535;51.098;6.414;2022-09-30T00:16:30;4.50;99.90
3051;DHT22;1535;51.098;6.414;2022-09-30T00:18:58;4.50;99.90
3051;DHT22;1535;51.098;6.414;2022-09-30T00:21:26;4.40;99.90
3051;DHT22;1535;51.098;6.414;2022-09-30T00:23:54;4.40;99.90
3051;DHT22;1535;51.098;6.414;2022-09-30T00:26:22;4.40;99.90
3051;DHT22;1535;51.098;6.414;2022-09-30T00:28:50;4.40;99.90
3051;DHT22;1535;51.098;6.414;2022-09-30T00:31:18;4.30;99.90
3051;DHT22;1535;51.098;6.414;2022-09-30T00:33:47;4.30;99.90
3051;DHT22;1535;51.098;6.414;2022-09-30T00:36:32;4.30;99.90
3051;DHT22;1535;51.098;6.414;2022-09-30T00:38:59;4.40;99.90
3051;DHT22;1535;51.098;6.414;2022-09-30T00:41:27;4.40;99.90
3051;DHT22;1535;51.098;6.414;2022-09-30T00:43:54;4.40;99.90
3051;DHT22;1535;51.098;6.414;2022-09-30T00:46:30;4.40;99.90
3051;DHT22;1535;51.098;6.414;2022-09-30T00:49:03;4.40;99.90
3051;DHT22;1535;51.098;6.414;2022-09-30T00:51:35;4.50;99.90
3051;DHT22;1535;51.098;6.414;2022-09-30T00:54:04;4.40;99.90
3051;DHT22;1535;51.098;6.414;2022-09-30T00:56:35;4.40;99.90
3051;DHT22;1535;51.098;6.414;2022-09-30T00:59:08;4.40;99.90
3051;DHT22;1535;51.098;6.414;2022-09-30T01:01:39;4.40;99.90
3051;DHT22;1535;51.098;6.414;2022-09-30T01:04:09;4.30;99.90
3051;DHT22;1535;51.098;6.414;2022-09-30T01:06:37;4.30;99.90
3051;DHT22;1535;51.098;6.414;2022-09-30T01:09:04;4.40;99.90
3051;DHT22;1535;51.098;6.414;2022-09-30T01:11:31;4.40;99.90
3051;DHT22;1535;51.098;6.414;2022-09-30T01:14:00;4.40;99.90
3051;DHT22;1535;51.098;6.414;2022-09-30T01:16:52;4.40;99.90
3051;DHT22;1535;51.098;6.414;2022-09-30T01:19:42;4.30;99.90
3051;DHT22;1535;51.098;6.414;2022-09-30T01:22:29;4.20;99.90
3051;DHT22;1535;51.098;6.414;2022-09-30T01:25:17;4.30;99.90
3051;DHT22;1535;51.098;6.414;2022-09-30T01:28:18;4.20;99.90
3051;DHT22;1535;51.098;6.414;2022-09-30T01:31:07;4.10;99.90
3051;DHT22;1535;51.098;6.414;2022-09-30T01:33:42;4.20;99.90
3051;DHT22;1535;51.098;6.414;2022-09-30T01:36:23;4.10;99.90
3051;DHT22;1535;51.098;6.414;2022-09-30T01:39:01;4.00;99.90
3051;DHT22;1535;51.098;6.414;2022-09-30T01:41:40;4.10;99.90
3051;DHT22;1535;51.098;6.414;2022-09-30T01:44:10;4.10;99.90
3051;DHT22;1535;51.098;6.414;2022-09-30T01:46:43;4.10;99.90
3051;DHT22;1535;51.098;6.414;2022-09-30T01:49:17;4.10;99.90
3051;DHT22;1535;51.098;6.414;2022-09-30T01:51:51;4.00;99.90
3051;DHT22;1535;51.098;6.414;2022-09-30T01:54:26;4.00;99.90
3051;DHT22;1535;51.098;6.414;2022-09-30T01:57:01;4.10;99.90
3051;DHT22;1535;51.098;6.414;2022-09-30T01:59:32;4.10;99.90
3051;DHT22;1535;51.098;6.414;2022-09-30T02:02:07;4.10;99.90
3051;DHT22;1535;51.098;6.414;2022-09-30T02:04:37;3.90;99.90
3051;DHT22;1535;51.098;6.414;2022-09-30T02:07:09;3.90;99.90
3051;DHT22;1535;51.098;6.414;2022-09-30T02:09:40;3.90;99.90
3051;DHT22;1535;51.098;6.414;2022-09-30T02:12:12;3.90;99.90
3051;DHT22;1535;51.098;6.414;2022-09-30T02:14:43;3.80;99.90
3051;DHT22;1535;51.098;6.414;2022-09-30T02:17:16;3.70;99.90
3051;DHT22;1535;51.098;6.414;2022-09-30T02:19:47;3.70;99.90
3051;DHT22;1535;51.098;6.414;2022-09-30T02:22:19;3.70;99.90
3051;DHT22;1535;51.098;6.414;2022-09-30T02:24:49;3.70;99.90
3051;DHT22;1535;51.098;6.414;2022-09-30T02:27:21;3.70;99.90
3051;DHT22;1535;51.098;6.414;2022-09-30T02:29:56;3.70;99.90
3051;DHT22;1535;51.098;6.414;2022-09-30T02:32:29;3.70;99.90
3051;DHT22;1535;51.098;6.414;2022-09-30T02:35:00;3.70;99.90
3051;DHT22;1535;51.098;6.414;2022-09-30T02:37:31;3.70;99.90
3051;DHT22;1535;51.098;6.414;2022-09-30T02:40:03;3.70;99.90
3051;DHT22;1535;51.098;6.414;2022-09-30T02:42:32;3.60;99.90
3051;DHT22;1535;51.098;6.414;2022-09-30T02:45:01;3.60;99.90
3051;DHT22;1535;51.098;6.414;2022-09-30T02:47:34;3.60;99.90
3051;DHT22;1535;51.098;6.414;2022-09-30T02:50:07;3.60;99.90
3051;DHT22;1535;51.098;6.414;2022-09-30T02:52:43;3.60;99.90
3051;DHT22;1535;51.098;6.414;2022-09-30T02:55:18;3.60;99.90
3051;DHT22;1535;51.098;6.414;2022-09-30T02:57:55;3.60;99.90
3051;DHT22;1535;51.098;6.414;2022-09-30T03:00:25;3.70;99.90
3051;DHT22;1535;51.098;6.414;2022-09-30T03:02:58;3.80;99.90
3051;DHT22;1535;51.098;6.414;2022-09-30T03:05:27;3.80;99.90
3051;DHT22;1535;51.098;6.414;2022-09-30T03:07:55;3.70;99.90
3051;DHT22;1535;51.098;6.414;2022-09-30T03:10:23;3.70;99.90
3051;DHT22;1535;51.098;6.414;2022-09-30T03:13:04;3.60;99.90
3051;DHT22;1535;51.098;6.414;2022-09-30T03:15:44;3.60;99.90
3051;DHT22;1535;51.098;6.414;2022-09-30T03:18:29;3.50;99.90
3051;DHT22;1535;51.098;6.414;2022-09-30T03:21:07;3.60;99.90
3051;DHT22;1535;51.098;6.414;2022-09-30T03:23:55;3.70;99.90
3051;DHT22;1535;51.098;6.414;2022-09-30T03:26:33;3.70;99.90
3051;DHT22;1535;51.098;6.414;2022-09-30T03:29:08;3.70;99.90
3051;DHT22;1535;51.098;6.414;2022-09-30T03:31:43;3.60;99.90
3051;DHT22;1535;51.098;6.414;2022-09-30T03:34:18;3.70;99.90
3051;DHT22;1535;51.098;6.414;2022-09-30T03:36:52;3.60;99.90
3051;DHT22;1535;51.098;6.414;2022-09-30T03:39:23;3.60;99.90
3051;DHT22;1535;51.098;6.414;2022-09-30T03:41:54;3.60;99.90
3051;DHT22;1535;51.098;6.414;2022-09-30T03:44:27;3.50;99.90
3051;DHT22;1535;51.098;6.414;2022-09-30T03:46:57;3.50;99.90
3051;DHT22;1535;51.098;6.414;2022-09-30T03:49:30;3.60;99.90
3051;DHT22;1535;51.098;6.414;2022-09-30T03:51:59;3.60;99.90
3051;DHT22;1535;51.098;6.414;2022-09-30T03:54:27;3.60;99.90
3051;DHT22;1535;51.098;6.414;2022-09-30T03:56:55;3.70;99.90
3051;DHT22;1535;51.098;6.414;2022-09-30T03:59:25;3.70;99.90
3051;DHT22;1535;51.098;6.414;2022-09-30T04:01:54;3.80;99.90
3051;DHT22;1535;51.098;6.414;2022-09-30T04:04:21;3.70;99.90
3051;DHT22;1535;51.098;6.414;2022-09-30T04:06:49;3.70;99.90
3051;DHT22;1535;51.098;6.414;2022-09-30T04:09:16;3.60;99.90
3051;DHT22;1535;51.098;6.414;2022-09-30T04:11:44;3.70;99.90
3051;DHT22;1535;51.098;6.414;2022-09-30T04:14:11;3.80;99.90
3051;DHT22;1535;51.098;6.414;2022-09-30T04:16:38;3.90;99.90
3051;DHT22;1535;51.098;6.414;2022-09-30T04:19:05;3.80;99.90
3051;DHT22;1535;51.098;6.414;2022-09-30T04:21:32;3.80;99.90
3051;DHT22;1535;51.098;6.414;2022-09-30T04:24:00;3.80;99.90
3051;DHT22;1535;51.098;6.414;2022-09-30T04:26:27;3.70;99.90
3051;DHT22;1535;51.098;6.414;2022-09-30T04:28:54;3.60;99.90
3051;DHT22;1535;51.098;6.414;2022-09-30T04:31:24;3.50;99.90
3051;DHT22;1535;51.098;6.414;2022-09-30T04:33:51;3.50;99.90
3051;DHT22;1535;51.098;6.414;2022-09-30T04:36:18;3.50;99.90
3051;DHT22;1535;51.098;6.414;2022-09-30T04:38:45;3.50;99.90
3051;DHT22;1535;51.098;6.414;2022-09-30T04:41:15;3.40;99.90
3051;DHT22;1535;51.098;6.414;2022-09-30T04:43:43;3.40;99.90
3051;DHT22;1535;51.098;6.414;2022-09-30T04:46:12;3.40;99.90
3051;DHT22;1535;51.098;6.414;2022-09-30T04:48:40;3.50;99.90
3051;DHT22;1535;51.098;6.414;2022-09-30T04:51:10;3.50;99.90
3051;DHT22;1535;51.098;6.414;2022-09-30T04:53:38;3.60;99.90
3051;DHT22;1535;51.098;6.414;2022-09-30T04:56:05;3.70;99.90
3051;DHT22;1535;51.098;6.414;2022-09-30T04:58:34;3.70;99.90
3051;DHT22;1535;51.098;6.414;2022-09-30T05:01:03;3.90;99.90
3051;DHT22;1535;51.098;6.414;2022-09-30T05:03:31;4.00;99.90
3051;DHT22;1535;51.098;6.414;2022-09-30T05:05:58;4.10;99.90
3051;DHT22;1535;51.098;6.414;2022-09-30T05:08:25;4.20;99.90
3051;DHT22;1535;51.098;6.414;2022-09-30T05:10:53;4.20;99.90
3051;DHT22;1535;51.098;6.414;2022-09-30T05:13:22;4.20;99.90
3051;DHT22;1535;51.098;6.414;2022-09-30T05:15:52;4.10;99.90
3051;DHT22;1535;51.098;6.414;2022-09-30T05:18:19;4.10;99.90
3051;DHT22;1535;51.098;6.414;2022-09-30T05:20:49;4.10;99.90
3051;DHT22;1535;51.098;6.414;2022-09-30T05:23:16;4.10;99.90
3051;DHT22;1535;51.098;6.414;2022-09-30T05:25:43;4.00;99.90
3051;DHT22;1535;51.098;6.414;2022-09-30T05:28:10;4.10;99.90
3051;DHT22;1535;51.098;6.414;2022-09-30T05:30:38;4.10;99.90
3051;DHT22;1535;51.098;6.414;2022-09-30T05:33:08;4.10;99.90
3051;DHT22;1535;51.098;6.414;2022-09-30T05:35:35;4.20;99.90
3051;DHT22;1535;51.098;6.414;2022-09-30T05:38:02;4.10;99.90
3051;DHT22;1535;51.098;6.414;2022-09-30T05:40:29;4.10;99.90
3051;DHT22;1535;51.098;6.414;2022-09-30T05:42:56;4.00;99.90
3051;DHT22;1535;51.098;6.414;2022-09-30T05:45:24;3.90;99.90
3051;DHT22;1535;51.098;6.414;2022-09-30T05:47:51;3.90;99.90
3051;DHT22;1535;51.098;6.414;2022-09-30T05:50:20;3.80;99.90
3051;DHT22;1535;51.098;6.414;2022-09-30T05:52:47;3.80;99.90
3051;DHT22;1535;51.098;6.414;2022-09-30T05:55:14;3.70;99.90
3051;DHT22;1535;51.098;6.414;2022-09-30T05:57:41;3.70;99.90
3051;DHT22;1535;51.098;6.414;2022-09-30T06:00:11;3.80;99.90
3051;DHT22;1535;51.098;6.414;2022-09-30T06:02:38;3.80;99.90
3051;DHT22;1535;51.098;6.414;2022-09-30T06:05:07;3.80;99.90
3051;DHT22;1535;51.098;6.414;2022-09-30T06:07:37;3.90;99.90
3051;DHT22;1535;51.098;6.414;2022-09-30T06:10:06;4.00;99.90
3051;DHT22;1535;51.098;6.414;2022-09-30T06:12:36;4.10;99.90
3051;DHT22;1535;51.098;6.414;2022-09-30T06:15:04;4.20;99.90
3051;DHT22;1535;51.098;6.414;2022-09-30T06:17:31;4.30;99.90
3051;DHT22;1535;51.098;6.414;2022-09-30T06:19:58;4.30;99.90
3051;DHT22;1535;51.098;6.414;2022-09-30T06:22:25;4.50;99.90
3051;DHT22;1535;51.098;6.414;2022-09-30T06:24:53;4.60;99.90
3051;DHT22;1535;51.098;6.414;2022-09-30T06:27:20;4.60;99.90
3051;DHT22;1535;51.098;6.414;2022-09-30T06:29:47;4.70;99.90
3051;DHT22;1535;51.098;6.414;2022-09-30T06:32:14;4.70;99.90
3051;DHT22;1535;51.098;6.414;2022-09-30T06:34:42;4.80;99.90
3051;DHT22;1535;51.098;6.414;2022-09-30T06:37:09;4.90;99.90
3051;DHT22;1535;51.098;6.414;2022-09-30T06:39:40;4.90;99.90
3051;DHT22;1535;51.098;6.414;2022-09-30T06:42:08;5.00;99.90
3051;DHT22;1535;51.098;6.414;2022-09-30T06:44:36;5.00;99.90
3051;DHT22;1535;51.098;6.414;2022-09-30T06:47:02;5.10;99.90
3051;DHT22;1535;51.098;6.414;2022-09-30T06:49:29;5.20;99.90
3051;DHT22;1535;51.098;6.414;2022-09-30T06:51:56;5.20;99.90
3051;DHT22;1535;51.098;6.414;2022-09-30T06:54:25;5.30;99.90
3051;DHT22;1535;51.098;6.414;2022-09-30T06:56:52;5.50;99.90
3051;DHT22;1535;51.098;6.414;2022-09-30T06:59:22;5.60;99.90
3051;DHT22;1535;51.098;6.414;2022-09-30T07:01:49;5.60;99.90
3051;DHT22;1535;51.098;6.414;2022-09-30T07:04:18;5.80;99.90
3051;DHT22;1535;51.098;6.414;2022-09-30T07:06:45;6.00;99.90
3051;DHT22;1535;51.098;6.414;2022-09-30T07:09:12;6.20;99.90
3051;DHT22;1535;51.098;6.414;2022-09-30T07:11:38;6.40;99.90
3051;DHT22;1535;51.098;6.414;2022-09-30T07:14:06;6.50;99.90
3051;DHT22;1535;51.098;6.414;2022-09-30T07:16:36;6.70;99.90
3051;DHT22;1535;51.098;6.414;2022-09-30T07:19:04;6.80;99.90
3051;DHT22;1535;51.098;6.414;2022-09-30T07:21:31;6.90;99.90
3051;DHT22;1535;51.098;6.414;2022-09-30T07:23:59;7.10;99.90
3051;DHT22;1535;51.098;6.414;2022-09-30T07:26:26;7.20;99.90
3051;DHT22;1535;51.098;6.414;2022-09-30T07:28:56;7.40;99.90
3051;DHT22;1535;51.098;6.414;2022-09-30T07:31:25;7.50;99.90
3051;DHT22;1535;51.098;6.414;2022-09-30T07:33:54;7.70;99.90
3051;DHT22;1535;51.098;6.414;2022-09-30T07:36:23;7.80;99.90
3051;DHT22;1535;51.098;6.414;2022-09-30T07:38:52;7.80;99.90
3051;DHT22;1535;51.098;6.414;2022-09-30T07:41:22;7.90;99.90
3051;DHT22;1535;51.098;6.414;2022-09-30T07:43:52;8.00;99.90
3051;DHT22;1535;51.098;6.414;2022-09-30T07:46:22;8.20;99.90
3051;DHT22;1535;51.098;6.414;2022-09-30T07:48:51;8.30;99.90
3051;DHT22;1535;51.098;6.414;2022-09-30T07:51:22;8.50;99.90
3051;DHT22;1535;51.098;6.414;2022-09-30T07:53:50;8.60;99.90
3051;DHT22;1535;51.098;6.414;2022-09-30T07:56:18;8.70;99.90
3051;DHT22;1535;51.098;6.414;2022-09-30T07:58:45;8.80;99.90
3051;DHT22;1535;51.098;6.414;2022-09-30T08:01:13;8.90;99.90
3051;DHT22;1535;51.098;6.414;2022-09-30T08:03:42;9.00;99.90
3051;DHT22;1535;51.098;6.414;2022-09-30T08:06:12;9.10;99.90
3051;DHT22;1535;51.098;6.414;2022-09-30T08:08:41;9.20;99.90
3051;DHT22;1535;51.098;6.414;2022-09-30T08:11:08;9.40;99.90
3051;DHT22;1535;51.098;6.414;2022-09-30T08:13:35;9.40;99.90
3051;DHT22;1535;51.098;6.414;2022-09-30T08:16:03;9.40;99.90
3051;DHT22;1535;51.098;6.414;2022-09-30T08:18:30;9.40;99.90
3051;DHT22;1535;51.098;6.414;2022-09-30T08:21:02;9.50;99.90
3051;DHT22;1535;51.098;6.414;2022-09-30T08:23:31;9.70;99.90
3051;DHT22;1535;51.098;6.414;2022-09-30T08:26:04;9.80;99.90
3051;DHT22;1535;51.098;6.414;2022-09-30T08:28:33;9.80;99.90
3051;DHT22;1535;51.098;6.414;2022-09-30T08:31:05;10.00;99.90
3051;DHT22;1535;51.098;6.414;2022-09-30T08:33:33;10.20;99.90
3051;DHT22;1535;51.098;6.414;2022-09-30T08:36:04;10.30;99.90
3051;DHT22;1535;51.098;6.414;2022-09-30T08:38:31;10.40;99.90
3051;DHT22;1535;51.098;6.414;2022-09-30T08:41:10;10.50;99.90
3051;DHT22;1535;51.098;6.414;2022-09-30T08:43:50;10.60;99.90
3051;DHT22;1535;51.098;6.414;2022-09-30T08:46:29;10.70;99.90
3051;DHT22;1535;51.098;6.414;2022-09-30T08:49:05;10.80;99.90
3051;DHT22;1535;51.098;6.414;2022-09-30T08:51:37;10.90;99.90
3051;DHT22;1535;51.098;6.414;2022-09-30T08:54:08;11.00;99.90
3051;DHT22;1535;51.098;6.414;2022-09-30T08:56:38;11.10;99.90
3051;DHT22;1535;51.098;6.414;2022-09-30T08:59:07;11.20;99.90
3051;DHT22;1535;51.098;6.414;2022-09-30T09:01:42;11.30;99.90
3051;DHT22;1535;51.098;6.414;2022-09-30T09:04:12;11.40;99.90
3051;DHT22;1535;51.098;6.414;2022-09-30T09:06:47;11.50;99.90
3051;DHT22;1535;51.098;6.414;2022-09-30T09:09:26;11.60;99.90
3051;DHT22;1535;51.098;6.414;2022-09-30T09:12:04;11.80;99.90
3051;DHT22;1535;51.098;6.414;2022-09-30T09:14:43;12.00;99.90
3051;DHT22;1535;51.098;6.414;2022-09-30T09:17:25;12.20;99.90
3051;DHT22;1535;51.098;6.414;2022-09-30T09:20:00;12.20;99.90
3051;DHT22;1535;51.098;6.414;2022-09-30T09:22:29;12.30;99.90
3051;DHT22;1535;51.098;6.414;2022-09-30T09:24:58;12.40;99.90
3051;DHT22;1535;51.098;6.414;2022-09-30T09:27:34;12.50;99.90
3051;DHT22;1535;51.098;6.414;2022-09-30T09:30:05;12.60;99.90
3051;DHT22;1535;51.098;6.414;2022-09-30T09:32:34;12.70;99.90
3051;DHT22;1535;51.098;6.414;2022-09-30T09:35:08;12.80;99.90
3051;DHT22;1535;51.098;6.414;2022-09-30T09:37:43;13.00;99.90
3051;DHT22;1535;51.098;6.414;2022-09-30T09:40:37;13.30;99.90
3051;DHT22;1535;51.098;6.414;2022-09-30T09:43:15;14.00;99.90
3051;DHT22;1535;51.098;6.414;2022-09-30T09:45:54;14.80;99.90
3051;DHT22;1535;51.098;6.414;2022-09-30T09:48:24;15.40;99.90
3051;DHT22;1535;51.098;6.414;2022-09-30T09:50:58;15.90;99.90
3051;DHT22;1535;51.098;6.414;2022-09-30T09:53:46;16.20;99.90
3051;DHT22;1535;51.098;6.414;2022-09-30T09:56:15;16.50;99.90
3051;DHT22;1535;51.098;6.414;2022-09-30T09:59:07;17.00;99.90
3051;DHT22;1535;51.098;6.414;2022-09-30T10:01:36;17.20;99.90
3051;DHT22;1535;51.098;6.414;2022-09-30T10:04:16;17.20;99.90
3051;DHT22;1535;51.098;6.414;2022-09-30T10:06:51;16.80;99.90
3051;DHT22;1535;51.098;6.414;2022-09-30T10:09:27;17.30;99.90
3051;DHT22;1535;51.098;6.414;2022-09-30T10:12:27;17.10;99.90
3051;DHT22;1535;51.098;6.414;2022-09-30T10:14:59;16.90;99.90
3051;DHT22;1535;51.098;6.414;2022-09-30T10:17:29;17.10;99.90
3051;DHT22;1535;51.098;6.414;2022-09-30T10:20:00;17.10;99.90
3051;DHT22;1535;51.098;6.414;2022-09-30T10:22:30;17.30;99.90
3051;DHT22;1535;51.098;6.414;2022-09-30T10:25:22;17.70;99.90
3051;DHT22;1535;51.098;6.414;2022-09-30T10:27:52;17.30;99.90
3051;DHT22;1535;51.098;6.414;2022-09-30T10:33:26;17.40;99.90
3051;DHT22;1535;51.098;6.414;2022-09-30T10:36:04;17.70;99.90
3051;DHT22;1535;51.098;6.414;2022-09-30T10:38:33;18.00;99.90
3051;DHT22;1535;51.098;6.414;2022-09-30T10:41:02;17.70;99.90
3051;DHT22;1535;51.098;6.414;2022-09-30T10:43:36;17.30;99.90
3051;DHT22;1535;51.098;6.414;2022-09-30T10:46:07;17.70;99.90
3051;DHT22;1535;51.098;6.414;2022-09-30T10:48:36;17.60;99.90
3051;DHT22;1535;51.098;6.414;2022-09-30T10:51:26;17.30;99.90
3051;DHT22;1535;51.098;6.414;2022-09-30T10:53:56;17.00;99.90
3051;DHT22;1535;51.098;6.414;2022-09-30T10:56:44;16.70;99.90
3051;DHT22;1535;51.098;6.414;2022-09-30T10:59:24;16.60;99.90
3051;DHT22;1535;51.098;6.414;2022-09-30T11:01:59;16.40;99.90
3051;DHT22;1535;51.098;6.414;2022-09-30T11:04:34;16.80;99.90
3051;DHT22;1535;51.098;6.414;2022-09-30T11:07:20;16.80;99.90
3051;DHT22;1535;51.098;6.414;2022-09-30T11:09:55;17.80;99.90
3051;DHT22;1535;51.098;6.414;2022-09-30T11:12:29;18.60;99.90
3051;DHT22;1535;51.098;6.414;2022-09-30T11:15:05;19.00;99.90
3051;DHT22;1535;51.098;6.414;2022-09-30T11:17:39;19.80;99.90
3051;DHT22;1535;51.098;6.414;2022-09-30T11:20:17;20.30;99.90
3051;DHT22;1535;51.098;6.414;2022-09-30T11:22:51;20.20;99.90
3051;DHT22;1535;51.098;6.414;2022-09-30T11:25:27;20.50;99.90
3051;DHT22;1535;51.098;6.414;2022-09-30T11:28:25;20.40;99.90
3051;DHT22;1535;51.098;6.414;2022-09-30T11:31:05;20.70;99.90
3051;DHT22;1535;51.098;6.414;2022-09-30T11:33:45;20.90;99.90
3051;DHT22;1535;51.098;6.414;2022-09-30T11:36:22;21.00;99.90
3051;DHT22;1535;51.098;6.414;2022-09-30T11:39:01;21.00;99.90
3051;DHT22;1535;51.098;6.414;2022-09-30T11:41:33;21.50;99.90
3051;DHT22;1535;51.098;6.414;2022-09-30T11:44:12;21.40;99.90
3051;DHT22;1535;51.098;6.414;2022-09-30T11:47:04;21.80;99.90
3051;DHT22;1535;51.098;6.414;2022-09-30T11:49:58;22.30;99.90
3051;DHT22;1535;51.098;6.414;2022-09-30T11:52:36;22.40;98.90
3051;DHT22;1535;51.098;6.414;2022-09-30T11:55:24;21.80;98.30
3051;DHT22;1535;51.098;6.414;2022-09-30T11:57:56;21.50;98.60
3051;DHT22;1535;51.098;6.414;2022-09-30T12:00:27;21.50;99.00
3051;DHT22;1535;51.098;6.414;2022-09-30T12:02:58;21.80;98.30
3051;DHT22;1535;51.098;6.414;2022-09-30T12:05:31;22.20;96.90
3051;DHT22;1535;51.098;6.414;2022-09-30T12:08:03;22.00;96.90
3051;DHT22;1535;51.098;6.414;2022-09-30T12:10:36;21.50;98.50
3051;DHT22;1535;51.098;6.414;2022-09-30T12:13:10;21.70;97.10
3051;DHT22;1535;51.098;6.414;2022-09-30T12:15:39;21.80;97.10
3051;DHT22;1535;51.098;6.414;2022-09-30T12:18:11;21.50;98.70
3051;DHT22;1535;51.098;6.414;2022-09-30T12:20:45;21.60;97.20
3051;DHT22;1535;51.098;6.414;2022-09-30T12:23:17;21.30;98.30
3051;DHT22;1535;51.098;6.414;2022-09-30T12:25:49;21.40;97.20
3051;DHT22;1535;51.098;6.414;2022-09-30T12:28:26;21.40;96.70
3051;DHT22;1535;51.098;6.414;2022-09-30T12:31:23;21.50;97.20
3051;DHT22;1535;51.098;6.414;2022-09-30T12:34:04;21.90;95.70
3051;DHT22;1535;51.098;6.414;2022-09-30T12:36:44;21.80;95.10
3051;DHT22;1535;51.098;6.414;2022-09-30T12:42:45;21.40;97.50
3051;DHT22;1535;51.098;6.414;2022-09-30T12:45:30;21.50;96.60
3051;DHT22;1535;51.098;6.414;2022-09-30T12:48:04;21.80;95.80
3051;DHT22;1535;51.098;6.414;2022-09-30T12:50:34;22.60;95.80
3051;DHT22;1535;51.098;6.414;2022-09-30T12:53:15;22.80;93.10
3051;DHT22;1535;51.098;6.414;2022-09-30T12:55:43;23.00;93.50
3051;DHT22;1535;51.098;6.414;2022-09-30T12:58:18;22.80;93.50
3051;DHT22;1535;51.098;6.414;2022-09-30T13:00:58;22.80;93.40
3051;DHT22;1535;51.098;6.414;2022-09-30T13:03:26;21.90;92.30
3051;DHT22;1535;51.098;6.414;2022-09-30T13:05:56;20.90;94.10
3051;DHT22;1535;51.098;6.414;2022-09-30T13:08:47;21.30;94.00
3051;DHT22;1535;51.098;6.414;2022-09-30T13:11:33;21.50;94.60
3051;DHT22;1535;51.098;6.414;2022-09-30T13:14:13;21.80;92.90
3051;DHT22;1535;51.098;6.414;2022-09-30T13:16:58;21.40;93.50
3051;DHT22;1535;51.098;6.414;2022-09-30T13:19:31;21.00;93.50
3051;DHT22;1535;51.098;6.414;2022-09-30T13:25:17;21.40;95.50
3051;DHT22;1535;51.098;6.414;2022-09-30T13:27:45;21.70;95.50
3051;DHT22;1535;51.098;6.414;2022-09-30T13:30:34;21.80;94.90
3051;DHT22;1535;51.098;6.414;2022-09-30T13:33:27;21.40;92.70
3051;DHT22;1535;51.098;6.414;2022-09-30T13:36:04;20.70;93.70
3051;DHT22;1535;51.098;6.414;2022-09-30T13:38:35;20.50;95.10
3051;DHT22;1535;51.098;6.414;2022-09-30T13:41:11;21.10;94.80
3051;DHT22;1535;51.098;6.414;2022-09-30T13:43:43;21.40;94.90
3051;DHT22;1535;51.098;6.414;2022-09-30T13:46:20;20.60;95.80
3051;DHT22;1535;51.098;6.414;2022-09-30T13:48:51;21.30;94.60
3051;DHT22;1535;51.098;6.414;2022-09-30T13:51:21;22.10;94.30
3051;DHT22;1535;51.098;6.414;2022-09-30T13:53:51;22.30;93.50
3051;DHT22;1535;51.098;6.414;2022-09-30T13:56:23;21.90;92.60
3051;DHT22;1535;51.098;6.414;2022-09-30T13:59:15;21.90;92.20
3051;DHT22;1535;51.098;6.414;2022-09-30T14:08:21;21.90;91.50
3051;DHT22;1535;51.098;6.414;2022-09-30T14:11:07;21.70;91.80
3051;DHT22;1535;51.098;6.414;2022-09-30T14:13:47;22.40;92.20
3051;DHT22;1535;51.098;6.414;2022-09-30T14:19:41;22.60;91.50
3051;DHT22;1535;51.098;6.414;2022-09-30T14:22:11;23.10;91.00
3051;DHT22;1535;51.098;6.414;2022-09-30T14:24:40;23.50;89.00
3051;DHT22;1535;51.098;6.414;2022-09-30T14:27:25;23.60;87.10
3051;DHT22;1535;51.098;6.414;2022-09-30T14:30:04;23.40;86.70
3051;DHT22;1535;51.098;6.414;2022-09-30T14:32:35;22.90;88.20
3051;DHT22;1535;51.098;6.414;2022-09-30T14:35:05;23.10;87.60
3051;DHT22;1535;51.098;6.414;2022-09-30T14:37:36;22.90;85.70
3051;DHT22;1535;51.098;6.414;2022-09-30T14:40:08;22.60;87.10
3051;DHT22;1535;51.098;6.414;2022-09-30T14:42:39;22.90;89.10
3051;DHT22;1535;51.098;6.414;2022-09-30T14:45:11;23.30;86.40
3051;DHT22;1535;51.098;6.414;2022-09-30T14:47:44;23.20;85.20
3051;DHT22;1535;51.098;6.414;2022-09-30T14:50:16;23.30;84.50
3051;DHT22;1535;51.098;6.414;2022-09-30T14:52:45;23.30;85.30
3051;DHT22;1535;51.098;6.414;2022-09-30T14:55:19;23.30;84.20
3051;DHT22;1535;51.098;6.414;2022-09-30T14:57:48;22.40;85.80
3051;DHT22;1535;51.098;6.414;2022-09-30T15:00:23;21.90;88.10
3051;DHT22;1535;51.098;6.414;2022-09-30T15:02:52;21.70;90.40
3051;DHT22;1535;51.098;6.414;2022-09-30T15:05:19;21.80;89.60
3051;DHT22;1535;51.098;6.414;2022-09-30T15:07:46;22.00;88.70
3051;DHT22;1535;51.098;6.414;2022-09-30T15:10:17;21.90;88.90
3051;DHT22;1535;51.098;6.414;2022-09-30T15:12:47;22.60;87.10
3051;DHT22;1535;51.098;6.414;2022-09-30T15:15:40;22.50;88.90
3051;DHT22;1535;51.098;6.414;2022-09-30T15:18:29;22.60;87.20
3051;DHT22;1535;51.098;6.414;2022-09-30T15:20:58;23.10;85.30
3051;DHT22;1535;51.098;6.414;2022-09-30T15:23:28;23.00;84.70
3051;DHT22;1535;51.098;6.414;2022-09-30T15:25:57;23.10;82.50
3051;DHT22;1535;51.098;6.414;2022-09-30T15:28:24;23.10;86.00
3051;DHT22;1535;51.098;6.414;2022-09-30T15:30:56;23.00;83.80
3051;DHT22;1535;51.098;6.414;2022-09-30T15:33:24;23.30;82.20
3051;DHT22;1535;51.098;6.414;2022-09-30T15:36:05;22.70;81.50
3051;DHT22;1535;51.098;6.414;2022-09-30T15:38:34;21.90;83.40
3051;DHT22;1535;51.098;6.414;2022-09-30T15:41:06;21.60;84.10
3051;DHT22;1535;51.098;6.414;2022-09-30T15:43:38;21.90;86.20
3051;DHT22;1535;51.098;6.414;2022-09-30T15:46:34;22.10;84.80
3051;DHT22;1535;51.098;6.414;2022-09-30T15:49:30;21.80;85.80
3051;DHT22;1535;51.098;6.414;2022-09-30T15:52:18;21.40;86.30
3051;DHT22;1535;51.098;6.414;2022-09-30T15:54:46;21.50;87.00
3051;DHT22;1535;51.098;6.414;2022-09-30T15:57:40;21.80;85.90
3051;DHT22;1535;51.098;6.414;2022-09-30T16:00:31;21.90;85.60
3051;DHT22;1535;51.098;6.414;2022-09-30T16:03:12;21.80;84.50
3051;DHT22;1535;51.098;6.414;2022-09-30T16:05:41;21.90;85.70
3051;DHT22;1535;51.098;6.414;2022-09-30T16:08:09;21.80;85.40
3051;DHT22;1535;51.098;6.414;2022-09-30T16:10:48;21.70;85.20
3051;DHT22;1535;51.098;6.414;2022-09-30T16:13:15;20.70;88.00
3051;DHT22;1535;51.098;6.414;2022-09-30T16:15:42;21.20;89.50
3051;DHT22;1535;51.098;6.414;2022-09-30T16:18:16;21.50;86.40
3051;DHT22;1535;51.098;6.414;2022-09-30T16:20:56;21.70;87.80
3051;DHT22;1535;51.098;6.414;2022-09-30T16:23:29;21.50;86.90
3051;DHT22;1535;51.098;6.414;2022-09-30T16:26:19;21.70;86.30
3051;DHT22;1535;51.098;6.414;2022-09-30T16:28:48;21.60;86.70
3051;DHT22;1535;51.098;6.414;2022-09-30T16:31:16;21.50;86.30
3051;DHT22;1535;51.098;6.414;2022-09-30T16:33:45;21.40;86.10
3051;DHT22;1535;51.098;6.414;2022-09-30T16:36:12;21.30;87.50
3051;DHT22;1535;51.098;6.414;2022-09-30T16:38:39;21.20;87.50
3051;DHT22;1535;51.098;6.414;2022-09-30T16:41:10;21.20;87.00
3051;DHT22;1535;51.098;6.414;2022-09-30T16:43:38;20.90;87.30
3051;DHT22;1535;51.098;6.414;2022-09-30T16:46:07;20.60;87.40
3051;DHT22;1535;51.098;6.414;2022-09-30T16:48:34;20.00;87.80
3051;DHT22;1535;51.098;6.414;2022-09-30T16:51:04;19.50;90.00
3051;DHT22;1535;51.098;6.414;2022-09-30T16:53:33;19.10;90.40
3051;DHT22;1535;51.098;6.414;2022-09-30T16:56:02;18.60;91.20
3051;DHT22;1535;51.098;6.414;2022-09-30T16:58:29;18.20;91.80
3051;DHT22;1535;51.098;6.414;2022-09-30T17:00:56;17.90;92.00
3051;DHT22;1535;51.098;6.414;2022-09-30T17:03:25;17.50;92.90
3051;DHT22;1535;51.098;6.414;2022-09-30T17:05:52;17.10;93.70